Time;durP1;ratioP1;P1;durP2;ratioP2;P2;SDS_P1;SDS_P2;PMS_P1;PMS_P2;Temp;Humidity;BMP_temperature;BMP_pressure;BME280_temperature;BME280_humidity;BME280_pressure;Samples;Min_cycle;Max_cycle;Signal;HPM_P1;HPM_P2
2022/06/19 00:02:22;;;;;;;5.85;1.58;;;27.60;35.20;;;;;;2288977;55;20964;-70
2022/06/19 00:04:49;;;;;;;5.25;1.75;;;27.50;35.30;;;;;;2293685;55;21728;-70
2022/06/19 00:07:15;;;;;;;4.90;1.42;;;27.50;35.50;;;;;;2288644;55;21264;-71
2022/06/19 00:09:43;;;;;;;5.07;1.70;;;27.40;35.50;;;;;;2288447;55;20964;-73
2022/06/19 00:12:10;;;;;;;7.37;1.20;;;27.40;35.60;;;;;;2288475;55;21000;-70
2022/06/19 00:14:36;;;;;;;8.25;1.58;;;27.30;35.70;;;;;;2291139;55;20919;-71
2022/06/19 00:17:03;;;;;;;5.55;1.33;;;27.30;36.00;;;;;;2290878;55;21047;-71
2022/06/19 00:19:31;;;;;;;4.78;1.00;;;27.20;36.00;;;;;;2288019;55;20952;-75
2022/06/19 00:21:57;;;;;;;5.53;1.70;;;27.20;36.00;;;;;;2288880;55;21520;-71
2022/06/19 00:24:23;;;;;;;7.18;1.60;;;27.20;36.20;;;;;;2288169;55;20996;-73
2022/06/19 00:26:50;;;;;;;5.25;1.40;;;27.10;36.80;;;;;;2296531;55;21033;-72
2022/06/19 00:29:16;;;;;;;6.37;1.60;;;27.10;36.30;;;;;;2276115;55;20956;-71
2022/06/19 00:31:43;;;;;;;3.65;1.10;;;27.00;36.30;;;;;;2289249;55;21016;-70
2022/06/19 00:34:09;;;;;;;5.68;1.30;;;27.00;36.30;;;;;;2288647;55;22551;-72
2022/06/19 00:36:35;;;;;;;4.40;1.40;;;27.00;36.50;;;;;;2301173;54;21017;-71
2022/06/19 00:39:02;;;;;;;4.62;1.73;;;27.00;36.60;;;;;;2289328;55;21064;-70
2022/06/19 00:41:33;;;;;;;4.82;1.58;;;26.90;36.60;;;;;;2291875;55;20978;-70
2022/06/19 00:44:01;;;;;;;3.75;1.20;;;26.90;36.80;;;;;;2286349;55;20973;-70
2022/06/19 00:47:30;;;;;;;5.90;1.50;;;26.80;36.80;;;;;;2287708;55;21028;-71
2022/06/19 00:50:16;;;;;;;5.53;1.20;;;26.80;37.20;;;;;;2457680;54;20973;-71
2022/06/19 00:52:42;;;;;;;7.57;1.20;;;26.80;36.80;;;;;;2294234;55;21109;-75
2022/06/19 00:55:13;;;;;;;6.65;1.30;;;26.70;36.70;;;;;;2521705;54;20938;-72
2022/06/19 00:57:44;;;;;;;4.65;1.50;;;26.70;36.90;;;;;;2292161;55;21474;-70
2022/06/19 01:00:29;;;;;;;4.12;0.90;;;26.70;36.90;;;;;;2288326;55;21469;-71
2022/06/19 01:03:02;;;;;;;5.20;1.37;;;26.60;37.10;;;;;;2288803;55;21402;-70
2022/06/19 01:05:28;;;;;;;5.22;1.58;;;26.60;37.00;;;;;;2289026;55;21020;-70
2022/06/19 01:07:56;;;;;;;4.32;1.08;;;26.60;36.90;;;;;;2288994;55;20961;-70
2022/06/19 01:10:22;;;;;;;4.32;1.25;;;26.60;37.00;;;;;;2301173;54;21020;-71
2022/06/19 01:12:49;;;;;;;4.65;1.20;;;26.50;36.90;;;;;;2288763;55;21947;-69
2022/06/19 01:15:19;;;;;;;6.25;1.62;;;26.50;37.00;;;;;;2288552;55;20945;-76
2022/06/19 01:17:50;;;;;;;5.78;1.48;;;26.50;37.20;;;;;;2288333;55;21003;-71
2022/06/19 01:20:16;;;;;;;4.53;1.15;;;26.50;37.20;;;;;;2289110;55;21476;-73
2022/06/19 01:23:26;;;;;;;7.00;1.33;;;26.50;37.20;;;;;;2288085;55;20988;-71
2022/06/19 01:25:52;;;;;;;5.18;1.58;;;26.50;37.40;;;;;;2270621;55;21875;-71
2022/06/19 01:31:18;;;;;;;5.72;1.37;;;26.60;37.40;;;;;;2288582;55;20957;-71
2022/06/19 01:33:50;;;;;;;3.83;1.20;;;26.60;37.50;;;;;;2288739;55;21016;-71
2022/06/19 01:36:17;;;;;;;5.03;1.07;;;26.60;37.50;;;;;;2289329;55;20932;-70
2022/06/19 01:38:46;;;;;;;2.78;0.98;;;26.60;37.40;;;;;;2306254;54;20944;-72
2022/06/19 01:41:16;;;;;;;4.20;1.45;;;26.60;37.40;;;;;;2523572;54;20961;-71
2022/06/19 01:43:42;;;;;;;7.90;1.77;;;26.60;37.50;;;;;;2362266;54;20948;-73
2022/06/19 01:46:09;;;;;;;6.57;1.37;;;26.70;37.50;;;;;;2292309;55;21908;-71
2022/06/19 01:48:35;;;;;;;5.68;1.60;;;26.70;37.50;;;;;;2292620;55;21581;-72
2022/06/19 01:51:04;;;;;;;5.82;1.73;;;26.70;37.50;;;;;;2289862;55;21502;-71
2022/06/19 01:54:04;;;;;;;8.03;1.63;;;26.80;37.70;;;;;;2288935;55;21004;-72
2022/06/19 01:56:32;;;;;;;6.03;1.33;;;26.80;37.80;;;;;;2291510;55;20948;-72
2022/06/19 01:59:05;;;;;;;6.35;1.58;;;26.80;37.50;;;;;;2363993;54;20996;-70
2022/06/19 02:01:33;;;;;;;5.10;1.52;;;26.90;37.70;;;;;;2397296;54;20997;-70
2022/06/19 02:04:00;;;;;;;7.78;1.98;;;26.90;37.80;;;;;;2288483;55;21371;-71
2022/06/19 02:06:28;;;;;;;6.43;1.80;;;26.90;37.80;;;;;;2292881;55;20990;-70
2022/06/19 02:08:55;;;;;;;5.07;1.40;;;26.90;37.80;;;;;;2288432;55;20972;-71
2022/06/19 02:11:21;;;;;;;6.82;1.40;;;27.00;38.00;;;;;;2288871;55;21342;-71
2022/06/19 02:13:48;;;;;;;7.12;1.30;;;27.00;37.80;;;;;;2289368;55;21004;-72
2022/06/19 02:16:18;;;;;;;6.28;1.55;;;27.00;37.80;;;;;;2294915;55;21869;-71
2022/06/19 02:18:49;;;;;;;7.12;1.25;;;27.00;38.10;;;;;;2290794;55;21026;-74
2022/06/19 02:21:21;;;;;;;6.03;1.20;;;27.00;38.00;;;;;;2286321;55;21012;-71
2022/06/19 02:23:47;;;;;;;4.43;1.37;;;27.00;37.90;;;;;;2370728;54;21867;-72
2022/06/19 02:26:13;;;;;;;6.18;1.30;;;27.00;37.80;;;;;;2321995;54;21925;-74
2022/06/19 02:28:42;;;;;;;5.37;1.60;;;27.10;37.80;;;;;;2288584;55;21434;-71
2022/06/19 02:31:08;;;;;;;6.32;1.52;;;27.10;37.80;;;;;;2288712;55;21583;-71
2022/06/19 02:33:42;;;;;;;6.70;1.80;;;27.10;37.80;;;;;;2288373;55;21024;-71
2022/06/19 02:37:00;;;;;;;6.47;2.00;;;27.10;37.90;;;;;;2290206;55;20965;-71
2022/06/19 02:41:05;;;;;;;4.82;1.00;;;27.20;38.20;;;;;;2288955;55;21092;-73
2022/06/19 02:43:33;;;;;;;4.12;1.30;;;27.20;38.00;;;;;;2522632;54;21387;-70
2022/06/19 02:46:09;;;;;;;5.15;1.10;;;27.20;37.70;;;;;;2288856;55;21004;-74
2022/06/19 02:48:35;;;;;;;6.30;1.75;;;27.20;37.70;;;;;;2288876;55;21460;-71
2022/06/19 02:51:03;;;;;;;4.35;1.30;;;27.20;37.60;;;;;;2488066;54;21756;-72
2022/06/19 02:53:30;;;;;;;4.10;1.37;;;27.20;37.60;;;;;;2289048;55;20940;-71
2022/06/19 02:55:57;;;;;;;6.43;1.12;;;27.20;37.60;;;;;;2500256;54;21041;-75
2022/06/19 02:58:24;;;;;;;2.90;1.17;;;27.20;37.50;;;;;;2287733;55;21012;-71
2022/06/19 03:00:51;;;;;;;7.05;1.80;;;27.20;37.60;;;;;;2399533;54;20976;-71
2022/06/19 03:03:26;;;;;;;6.62;1.30;;;27.20;37.50;;;;;;2288811;55;20933;-71
2022/06/19 03:05:53;;;;;;;5.80;1.40;;;27.30;37.60;;;;;;2288357;55;20964;-71
2022/06/19 03:08:19;;;;;;;6.65;1.37;;;27.30;37.60;;;;;;2292114;54;22030;-73
2022/06/19 03:10:45;;;;;;;5.87;1.48;;;27.30;37.50;;;;;;2289944;55;21004;-76
2022/06/19 03:13:13;;;;;;;6.20;1.20;;;27.30;38.20;;;;;;2403719;53;21408;-74
2022/06/19 03:15:39;;;;;;;6.43;1.37;;;27.30;37.60;;;;;;2269804;55;20957;-71
2022/06/19 03:18:06;;;;;;;5.37;1.50;;;27.30;37.80;;;;;;2520804;54;21009;-72
2022/06/19 03:20:32;;;;;;;6.05;1.90;;;27.20;38.00;;;;;;2373503;54;20957;-73
2022/06/19 03:22:59;;;;;;;6.85;1.87;;;27.20;38.00;;;;;;2518065;54;21406;-73
2022/06/19 03:25:25;;;;;;;8.85;2.15;;;27.20;37.80;;;;;;2521650;53;20989;-72
2022/06/19 03:27:52;;;;;;;6.18;1.73;;;27.20;38.70;;;;;;2292101;55;20929;-74
2022/06/19 03:30:19;;;;;;;5.57;1.40;;;27.20;38.60;;;;;;2288839;55;21043;-71
2022/06/19 03:32:45;;;;;;;5.40;1.52;;;27.20;38.40;;;;;;2309644;54;21008;-72
2022/06/19 03:35:11;;;;;;;5.07;1.58;;;27.20;38.40;;;;;;2282642;55;20948;-71
2022/06/19 03:37:39;;;;;;;4.68;1.52;;;27.20;38.60;;;;;;2288630;55;21005;-71
2022/06/19 03:40:07;;;;;;;5.40;2.03;;;27.10;38.60;;;;;;2285338;55;20952;-68
2022/06/19 03:42:34;;;;;;;5.85;1.33;;;27.10;38.60;;;;;;2285867;55;20976;-72
2022/06/19 03:45:03;;;;;;;4.78;1.30;;;27.10;38.50;;;;;;2447727;54;21769;-71
2022/06/19 03:47:30;;;;;;;6.72;1.50;;;27.10;38.60;;;;;;2286661;55;20968;-71
2022/06/19 03:49:56;;;;;;;4.70;1.62;;;27.10;38.60;;;;;;2291588;55;21441;-71
2022/06/19 03:52:25;;;;;;;7.20;2.05;;;27.00;38.50;;;;;;2291313;55;21439;-73
2022/06/19 03:55:00;;;;;;;4.20;1.30;;;27.00;38.60;;;;;;2290468;55;21033;-73
2022/06/19 03:57:26;;;;;;;3.87;1.30;;;27.00;38.60;;;;;;2290521;55;21004;-73
2022/06/19 03:59:53;;;;;;;4.93;1.17;;;27.00;38.60;;;;;;2286967;55;21028;-69
2022/06/19 04:02:19;;;;;;;5.12;1.60;;;27.00;38.70;;;;;;2522057;54;21412;-71
2022/06/19 04:04:46;;;;;;;4.87;1.70;;;26.90;38.70;;;;;;2522531;54;21104;-72
2022/06/19 04:07:14;;;;;;;4.50;1.27;;;26.90;38.90;;;;;;2476702;53;20962;-75
2022/06/19 04:09:40;;;;;;;6.05;1.23;;;26.80;38.90;;;;;;2288182;55;20948;-71
2022/06/19 04:12:07;;;;;;;5.35;1.20;;;26.80;39.00;;;;;;2409759;54;21513;-72
2022/06/19 04:14:33;;;;;;;4.53;1.17;;;26.80;39.00;;;;;;2287085;55;20983;-73
2022/06/19 04:17:00;;;;;;;4.87;1.42;;;26.80;39.10;;;;;;2287276;55;20976;-74
2022/06/19 04:19:29;;;;;;;5.20;1.20;;;26.70;39.10;;;;;;2289948;55;21013;-72
2022/06/19 04:21:55;;;;;;;4.78;1.10;;;26.70;39.30;;;;;;2291739;55;21026;-70
2022/06/19 04:24:22;;;;;;;4.20;1.30;;;26.70;39.30;;;;;;2290951;55;20976;-71
2022/06/19 04:26:48;;;;;;;6.87;1.30;;;26.60;39.40;;;;;;2291895;55;20996;-71
2022/06/19 04:29:16;;;;;;;6.55;1.42;;;26.60;39.40;;;;;;2287676;55;20947;-70
2022/06/19 04:31:43;;;;;;;6.10;1.55;;;26.60;39.50;;;;;;2305814;54;20960;-71
2022/06/19 04:34:10;;;;;;;3.85;1.37;;;26.60;39.50;;;;;;2522771;54;21000;-72
2022/06/19 04:36:37;;;;;;;4.60;1.33;;;26.50;39.60;;;;;;2288477;55;21461;-73
2022/06/19 04:39:07;;;;;;;3.47;1.20;;;26.40;39.50;;;;;;2291868;55;21026;-71
2022/06/19 04:41:36;;;;;;;4.57;1.20;;;26.50;39.70;;;;;;2523408;54;21441;-71
2022/06/19 04:44:03;;;;;;;6.32;1.70;;;26.40;39.80;;;;;;2289073;55;21446;-71
2022/06/19 04:46:30;;;;;;;4.15;1.17;;;26.40;39.90;;;;;;2289156;55;21739;-71
2022/06/19 04:48:56;;;;;;;5.40;1.42;;;26.40;40.00;;;;;;2339759;54;21019;-70
2022/06/19 04:51:24;;;;;;;8.13;1.83;;;26.40;40.30;;;;;;2288892;55;20928;-74
2022/06/19 04:53:53;;;;;;;5.43;1.45;;;26.40;40.40;;;;;;2431317;54;21012;-71
2022/06/19 04:56:20;;;;;;;6.57;1.83;;;26.40;40.60;;;;;;2291191;55;20997;-70
2022/06/19 04:58:46;;;;;;;5.87;1.20;;;26.40;40.90;;;;;;2504283;54;21283;-69
2022/06/19 05:01:32;;;;;;;5.68;1.73;;;26.30;40.90;;;;;;2288190;55;21012;-75
2022/06/19 05:03:59;;;;;;;4.07;1.25;;;26.40;41.30;;;;;;2287768;55;21052;-71
2022/06/19 05:06:29;;;;;;;4.07;1.30;;;26.30;40.90;;;;;;2344573;54;21331;-71
2022/06/19 05:08:55;;;;;;;6.80;1.70;;;26.30;41.60;;;;;;2360847;54;20962;-75
2022/06/19 05:11:22;;;;;;;7.70;1.70;;;26.30;41.00;;;;;;2288433;55;21039;-71
2022/06/19 05:13:48;;;;;;;6.05;1.40;;;26.30;41.20;;;;;;2288415;55;20995;-72
2022/06/19 05:16:20;;;;;;;5.90;1.77;;;26.40;41.30;;;;;;2292014;55;21032;-71
2022/06/19 05:18:46;;;;;;;3.65;1.35;;;26.40;41.30;;;;;;2288209;55;21449;-71
2022/06/19 05:21:16;;;;;;;5.00;1.55;;;26.40;41.40;;;;;;2289282;55;20969;-72
2022/06/19 05:23:44;;;;;;;5.62;1.65;;;26.40;41.70;;;;;;2288332;55;20972;-75
2022/06/19 05:26:19;;;;;;;5.15;1.52;;;26.50;42.00;;;;;;2289264;55;21020;-73
2022/06/19 05:28:45;;;;;;;6.22;1.55;;;26.50;42.20;;;;;;2371777;54;20976;-70
2022/06/19 05:31:11;;;;;;;4.57;1.50;;;26.60;42.30;;;;;;2292259;55;21025;-71
2022/06/19 05:33:39;;;;;;;8.68;2.50;;;26.60;42.40;;;;;;2286895;55;20980;-71
2022/06/19 05:36:06;;;;;;;8.32;2.22;;;26.60;42.50;;;;;;2521079;54;21863;-74
2022/06/19 05:38:32;;;;;;;9.35;1.87;;;26.70;42.80;;;;;;2290459;55;20981;-72
2022/06/19 05:40:59;;;;;;;6.53;1.60;;;26.70;42.70;;;;;;2285887;55;21036;-75
2022/06/19 05:43:26;;;;;;;4.22;1.50;;;26.80;42.60;;;;;;2286040;55;20968;-72
2022/06/19 05:45:54;;;;;;;4.72;1.50;;;26.80;42.40;;;;;;2313526;54;21032;-73
2022/06/19 05:48:20;;;;;;;6.43;1.62;;;26.90;42.40;;;;;;2287040;55;20999;-71
2022/06/19 05:50:57;;;;;;;7.00;1.80;;;26.90;42.40;;;;;;2286652;55;21778;-70
2022/06/19 05:53:26;;;;;;;4.30;1.80;;;27.00;42.70;;;;;;2312911;54;21648;-71
2022/06/19 05:55:53;;;;;;;5.35;1.65;;;27.00;42.50;;;;;;2288549;55;21880;-73
2022/06/19 05:58:20;;;;;;;7.50;2.20;;;27.10;42.50;;;;;;2291959;55;21064;-74
2022/06/19 06:00:46;;;;;;;5.93;2.00;;;27.20;42.60;;;;;;2344630;54;21297;-75
2022/06/19 06:03:13;;;;;;;6.37;2.10;;;27.20;42.60;;;;;;2337219;54;20965;-72
2022/06/19 06:05:40;;;;;;;4.78;1.67;;;27.30;42.70;;;;;;2291245;55;20964;-69
2022/06/19 06:08:12;;;;;;;5.55;1.75;;;27.30;42.80;;;;;;2344681;54;20969;-69
2022/06/19 06:10:43;;;;;;;8.65;1.92;;;27.40;43.10;;;;;;2286874;55;20948;-71
2022/06/19 06:13:10;;;;;;;6.40;1.98;;;27.40;43.00;;;;;;2287552;55;21862;-72
2022/06/19 06:15:36;;;;;;;8.05;2.33;;;27.50;43.00;;;;;;2296708;54;20949;-72
2022/06/19 06:18:02;;;;;;;10.13;2.25;;;27.50;43.00;;;;;;2361173;54;20952;-73
2022/06/19 06:20:29;;;;;;;5.60;2.08;;;27.60;43.20;;;;;;2330747;54;20976;-72
2022/06/19 06:22:55;;;;;;;6.90;1.90;;;27.70;43.40;;;;;;2338954;54;20977;-71
2022/06/19 06:25:21;;;;;;;6.43;2.45;;;27.70;43.20;;;;;;2300068;54;20984;-74
2022/06/19 06:27:49;;;;;;;4.95;2.20;;;27.80;43.00;;;;;;2287668;55;20956;-72
2022/06/19 06:30:15;;;;;;;5.43;2.37;;;27.90;43.20;;;;;;2287083;55;20963;-72
2022/06/19 06:32:44;;;;;;;5.97;2.20;;;27.90;43.30;;;;;;2288143;55;21953;-73
2022/06/19 06:35:10;;;;;;;6.43;1.98;;;28.00;43.40;;;;;;2287748;55;21006;-71
2022/06/19 06:37:37;;;;;;;10.63;2.45;;;28.10;43.60;;;;;;2288091;55;21052;-72
2022/06/19 06:40:06;;;;;;;6.62;2.30;;;28.20;43.60;;;;;;2291487;55;21161;-73
2022/06/19 06:42:32;;;;;;;7.07;2.20;;;28.30;43.90;;;;;;2293391;55;21021;-71
2022/06/19 06:44:59;;;;;;;6.37;2.50;;;28.40;43.90;;;;;;2288596;55;20948;-72
2022/06/19 06:47:25;;;;;;;5.53;2.47;;;28.40;44.00;;;;;;2295559;55;21061;-70
2022/06/19 06:49:51;;;;;;;7.37;2.42;;;28.50;44.20;;;;;;2293789;55;20996;-71
2022/06/19 06:52:18;;;;;;;6.55;2.40;;;28.60;44.40;;;;;;2299117;55;21073;-75
2022/06/19 06:54:47;;;;;;;8.73;2.78;;;28.70;44.60;;;;;;2294750;55;21889;-72
2022/06/19 06:57:14;;;;;;;5.28;2.37;;;28.80;44.70;;;;;;2286489;55;22054;-76
2022/06/19 06:59:40;;;;;;;9.40;2.80;;;28.90;44.80;;;;;;2289060;55;21525;-71
2022/06/19 07:02:06;;;;;;;6.85;2.58;;;29.00;44.80;;;;;;2288143;55;21356;-72
2022/06/19 07:04:35;;;;;;;9.35;2.80;;;29.10;44.80;;;;;;2520605;54;21028;-73
2022/06/19 07:07:05;;;;;;;4.10;2.45;;;29.20;44.70;;;;;;2287323;55;21007;-73
2022/06/19 07:09:31;;;;;;;5.78;2.62;;;29.30;44.60;;;;;;2291655;55;20949;-72
2022/06/19 07:11:57;;;;;;;7.65;3.42;;;29.40;44.60;;;;;;2354591;54;21454;-73
2022/06/19 07:14:24;;;;;;;8.40;3.12;;;29.50;44.40;;;;;;2291127;55;20970;-73
2022/06/19 07:16:50;;;;;;;5.65;2.62;;;29.70;44.50;;;;;;2292082;55;21644;-76
2022/06/19 07:19:19;;;;;;;8.65;2.87;;;29.70;44.40;;;;;;2290401;55;21467;-72
2022/06/19 07:21:45;;;;;;;8.27;3.15;;;29.80;44.50;;;;;;2286144;55;20975;-72
2022/06/19 07:24:11;;;;;;;9.25;4.18;;;30.00;44.40;;;;;;2291003;55;20953;-73
2022/06/19 07:26:37;;;;;;;8.07;3.20;;;30.10;44.50;;;;;;2288094;55;21476;-74
2022/06/19 07:29:05;;;;;;;6.57;3.60;;;30.20;44.30;;;;;;2372608;54;21001;-73
2022/06/19 07:31:32;;;;;;;8.55;3.30;;;30.40;44.90;;;;;;2522797;54;21045;-74
2022/06/19 07:33:58;;;;;;;6.72;3.37;;;30.50;44.10;;;;;;2411141;54;21006;-74
2022/06/19 07:36:26;;;;;;;6.30;3.22;;;30.60;44.20;;;;;;2288224;55;21052;-72
2022/06/19 07:38:52;;;;;;;7.78;3.83;;;30.70;44.00;;;;;;2288323;55;21058;-72
2022/06/19 07:41:18;;;;;;;5.72;4.00;;;30.80;44.10;;;;;;2288600;55;20977;-74
2022/06/19 07:43:45;;;;;;;8.48;4.00;;;30.90;43.90;;;;;;2288676;55;21774;-75
2022/06/19 07:46:12;;;;;;;7.30;4.05;;;31.00;43.60;;;;;;2326073;54;20952;-73
2022/06/19 07:51:28;;;;;;;6.45;4.03;;;31.30;43.40;;;;;;2491593;54;21863;-74
2022/06/19 07:53:57;;;;;;;6.35;4.40;;;31.50;43.30;;;;;;2288393;55;20964;-73
2022/06/19 07:56:24;;;;;;;6.85;4.45;;;31.60;43.10;;;;;;2288643;55;20981;-74
2022/06/19 07:58:50;;;;;;;6.82;4.28;;;31.70;42.80;;;;;;2291805;55;21025;-75
2022/06/19 08:01:16;;;;;;;5.62;4.20;;;31.80;42.70;;;;;;2291746;55;25041;-74
2022/06/19 08:03:42;;;;;;;7.47;4.70;;;31.90;42.50;;;;;;2487384;54;22012;-74
2022/06/19 08:06:09;;;;;;;8.18;4.85;;;32.00;42.30;;;;;;2288554;55;20936;-72
2022/06/19 08:08:36;;;;;;;5.65;4.40;;;32.10;42.10;;;;;;2412145;54;20960;-72
2022/06/19 08:11:02;;;;;;;6.05;4.25;;;32.20;42.00;;;;;;2292022;55;21029;-73
2022/06/19 08:13:30;;;;;;;7.18;4.57;;;32.40;41.90;;;;;;2288213;55;20960;-72
2022/06/19 08:16:02;;;;;;;6.90;3.75;;;32.40;41.70;;;;;;2288537;55;20952;-72
2022/06/19 08:18:30;;;;;;;5.55;4.00;;;32.60;41.70;;;;;;2288599;55;21706;-73
2022/06/19 08:20:56;;;;;;;7.47;4.18;;;32.60;41.40;;;;;;2288687;55;21464;-73
2022/06/19 08:23:23;;;;;;;5.87;4.30;;;32.80;41.90;;;;;;2520566;54;21816;-71
2022/06/19 08:25:49;;;;;;;6.72;4.75;;;32.80;41.00;;;;;;2288471;55;21004;-73
2022/06/19 08:28:16;;;;;;;7.37;4.40;;;32.90;40.80;;;;;;2291299;55;20952;-72
2022/06/19 08:30:44;;;;;;;7.18;4.20;;;33.00;40.60;;;;;;2287177;55;20940;-72
2022/06/19 08:33:11;;;;;;;8.18;4.32;;;33.10;40.60;;;;;;2290834;55;20989;-73
2022/06/19 08:35:44;;;;;;;8.32;5.05;;;33.20;40.50;;;;;;2288474;55;20976;-72
2022/06/19 08:38:14;;;;;;;7.90;4.18;;;33.20;40.20;;;;;;2288121;55;21022;-71
2022/06/19 08:40:50;;;;;;;8.25;4.60;;;33.30;40.20;;;;;;2288218;55;20964;-73
2022/06/19 08:43:40;;;;;;;7.78;4.65;;;33.40;40.20;;;;;;2288188;55;21759;-73
2022/06/19 08:49:11;;;;;;;6.05;4.12;;;33.50;40.00;;;;;;2515352;54;20996;-71
2022/06/19 08:55:08;;;;;;;8.65;4.10;;;33.60;39.90;;;;;;2288758;55;20949;-74
2022/06/19 08:57:48;;;;;;;6.53;3.92;;;33.80;39.30;;;;;;2288531;55;21015;-73
2022/06/19 09:00:30;;;;;;;6.47;4.20;;;33.90;39.40;;;;;;2288585;55;21721;-73
2022/06/19 09:07:51;;;;;;;8.45;4.30;;;34.00;39.30;;;;;;2295814;55;21396;-74
2022/06/19 09:12:00;;;;;;;8.30;4.43;;;34.20;38.70;;;;;;2289623;55;21410;-73
2022/06/19 09:15:20;;;;;;;6.12;3.67;;;34.20;38.50;;;;;;2524706;54;20964;-71
2022/06/19 09:18:05;;;;;;;6.97;3.47;;;34.30;38.10;;;;;;2525444;54;21546;-75
2022/06/19 09:20:51;;;;;;;7.68;3.33;;;34.40;38.30;;;;;;2289268;55;21043;-75
2022/06/19 09:23:49;;;;;;;5.55;3.65;;;34.40;38.00;;;;;;2290945;55;20976;-73
2022/06/19 09:26:32;;;;;;;5.90;3.45;;;34.50;37.40;;;;;;2290564;55;21028;-73
2022/06/19 09:29:19;;;;;;;5.07;3.10;;;34.60;36.90;;;;;;2290111;55;20988;-75
2022/06/19 09:38:36;;;;;;;5.95;2.67;;;34.70;36.70;;;;;;2299739;55;20969;-74
2022/06/19 09:41:03;;;;;;;;;;;34.70;36.30;;;;;;2292895;55;20980;-73
2022/06/19 09:43:42;;;;;;;3.83;1.95;;;35.00;36.50;;;;;;2289150;55;20096;-72
2022/06/19 09:46:13;;;;;;;5.53;2.58;;;35.00;35.80;;;;;;2289434;55;21031;-73
2022/06/19 09:48:42;;;;;;;5.53;2.95;;;35.10;35.80;;;;;;2289762;55;21051;-73
2022/06/19 09:51:15;;;;;;;6.03;3.03;;;35.10;35.40;;;;;;2292808;55;20952;-74
2022/06/19 09:53:51;;;;;;;5.78;3.10;;;35.20;35.30;;;;;;2288122;55;20944;-76
2022/06/19 09:58:19;;;;;;;5.70;3.10;;;35.20;34.40;;;;;;2291735;55;20929;-71
2022/06/19 10:00:46;;;;;;;4.18;2.90;;;35.30;34.60;;;;;;2289202;55;20939;-73
2022/06/19 10:03:32;;;;;;;4.87;2.78;;;35.40;34.90;;;;;;2292110;55;20969;-73
2022/06/19 10:09:43;;;;;;;7.00;2.90;;;35.40;34.30;;;;;;2292601;55;20998;-72
2022/06/19 10:12:14;;;;;;;5.18;2.90;;;35.60;34.60;;;;;;2290435;55;20973;-72
2022/06/19 10:14:46;;;;;;;5.10;2.97;;;35.60;34.10;;;;;;2290187;55;20949;-74
2022/06/19 10:17:46;;;;;;;6.78;3.22;;;35.70;34.10;;;;;;2293737;55;21011;-75
2022/06/19 10:20:21;;;;;;;5.28;3.17;;;35.70;33.30;;;;;;2373469;54;21052;-72
2022/06/19 10:26:13;;;;;;;4.85;2.53;;;35.70;33.40;;;;;;2290051;55;20984;-73
2022/06/19 10:29:20;;;;;;;4.50;2.33;;;35.80;33.50;;;;;;2392501;54;21024;-73
2022/06/19 10:35:09;;;;;;;3.62;2.20;;;35.90;31.70;;;;;;2293204;55;21577;-73
2022/06/19 10:40:26;;;;;;;5.40;2.25;;;36.10;32.60;;;;;;2290460;55;20952;-74
2022/06/19 10:46:00;;;;;;;4.93;1.95;;;36.20;31.50;;;;;;2290535;55;21544;-72
2022/06/19 10:48:55;;;;;;;4.45;1.87;;;36.20;31.00;;;;;;2294056;55;21084;-74
2022/06/19 10:52:22;;;;;;;4.12;1.87;;;36.30;30.40;;;;;;2491378;54;20972;-72
2022/06/19 10:58:05;;;;;;;5.45;1.80;;;36.40;30.00;;;;;;2524215;54;20961;-73
2022/06/19 11:00:32;;;;;;;4.97;1.57;;;36.50;30.90;;;;;;2477630;54;20948;-74
2022/06/19 11:04:34;;;;;;;6.05;1.73;;;36.50;31.00;;;;;;2289723;55;21173;-74
2022/06/19 11:07:05;;;;;;;6.28;1.90;;;36.60;30.60;;;;;;2291907;55;20960;-75
2022/06/19 11:09:39;;;;;;;4.87;2.12;;;36.70;30.50;;;;;;2305765;54;20941;-74
2022/06/19 11:12:37;;;;;;;4.10;2.10;;;36.70;30.00;;;;;;2480028;54;22044;-76
2022/06/19 11:15:06;;;;;;;4.60;2.20;;;36.80;30.20;;;;;;2287079;55;20960;-76
2022/06/19 11:17:40;;;;;;;3.85;1.70;;;36.80;30.20;;;;;;2299507;54;21064;-77
2022/06/19 11:21:58;;;;;;;3.67;1.83;;;36.90;29.90;;;;;;2291452;55;21013;-77
2022/06/19 11:24:26;;;;;;;3.12;1.40;;;37.00;29.80;;;;;;2293348;55;21009;-76
2022/06/19 11:26:52;;;;;;;4.05;1.50;;;37.00;29.20;;;;;;2361487;54;21436;-76
2022/06/19 11:29:20;;;;;;;3.60;1.33;;;37.10;28.70;;;;;;2287668;55;20949;-77
2022/06/19 11:32:09;;;;;;;4.57;1.37;;;37.20;28.50;;;;;;2290510;55;20940;-78
2022/06/19 11:34:45;;;;;;;4.43;1.40;;;37.20;27.70;;;;;;2525032;54;20944;-76
2022/06/19 11:37:39;;;;;;;4.97;1.33;;;37.30;28.00;;;;;;2373026;54;20972;-77
2022/06/19 11:40:17;;;;;;;2.85;1.25;;;37.30;27.40;;;;;;2525506;54;21020;-76
2022/06/19 11:42:51;;;;;;;4.47;1.45;;;37.40;27.30;;;;;;2292490;55;20976;-75
2022/06/19 11:45:23;;;;;;;3.95;1.55;;;37.50;27.40;;;;;;2325572;54;21000;-75
2022/06/19 11:48:11;;;;;;;4.75;1.60;;;37.50;27.00;;;;;;2290198;55;20992;-75
2022/06/19 11:50:50;;;;;;;2.90;1.40;;;37.60;26.70;;;;;;2290995;55;21513;-74
2022/06/19 11:53:23;;;;;;;4.78;1.70;;;37.70;26.50;;;;;;2294368;55;20972;-77
2022/06/19 11:55:51;;;;;;;6.70;1.60;;;37.70;26.60;;;;;;2289736;55;21004;-75
2022/06/19 11:58:30;;;;;;;4.32;1.48;;;37.80;26.90;;;;;;2525544;54;20948;-79
2022/06/19 12:01:09;;;;;;;3.28;1.45;;;37.90;26.50;;;;;;2494476;54;20969;-74
2022/06/19 12:03:59;;;;;;;4.87;1.60;;;37.90;26.20;;;;;;2293703;55;21037;-77
2022/06/19 12:06:54;;;;;;;3.87;1.42;;;38.00;26.50;;;;;;2369261;54;21056;-76
2022/06/19 12:09:52;;;;;;;4.20;1.25;;;38.00;26.30;;;;;;2290201;55;20941;-78
2022/06/19 12:12:19;;;;;;;4.80;1.58;;;38.10;25.70;;;;;;2297732;54;20919;-77
2022/06/19 12:15:00;;;;;;;6.40;1.30;;;38.10;26.10;;;;;;2290173;55;20964;-77
2022/06/19 12:17:38;;;;;;;4.53;1.30;;;38.20;25.70;;;;;;2290994;55;21004;-76
2022/06/19 12:20:26;;;;;;;3.83;1.42;;;38.20;26.00;;;;;;2289698;55;21505;-77
2022/06/19 12:23:15;;;;;;;3.47;1.37;;;38.30;25.50;;;;;;2465685;54;21097;-75
2022/06/19 12:26:23;;;;;;;4.10;1.50;;;38.40;25.00;;;;;;2290260;55;21421;-79
2022/06/19 12:28:53;;;;;;;3.15;1.40;;;38.50;25.20;;;;;;2291190;55;21016;-77
2022/06/19 12:31:24;;;;;;;3.25;1.42;;;38.50;25.20;;;;;;2298241;55;20982;-76
2022/06/19 12:33:53;;;;;;;5.57;1.40;;;38.50;25.40;;;;;;2282241;55;20948;-76
2022/06/19 12:36:27;;;;;;;2.80;1.30;;;38.60;25.30;;;;;;2332532;54;20992;-75
2022/06/19 12:38:54;;;;;;;4.15;1.35;;;38.60;25.30;;;;;;2290564;55;20901;-75
2022/06/19 12:41:48;;;;;;;6.00;1.62;;;38.60;25.40;;;;;;2497953;54;21058;-75
2022/06/19 12:44:26;;;;;;;3.90;1.60;;;38.70;24.80;;;;;;2293711;55;20970;-74
2022/06/19 12:50:18;;;;;;;3.97;1.33;;;38.70;25.10;;;;;;2293806;55;20917;-75
2022/06/19 12:55:46;;;;;;;5.00;1.30;;;38.80;25.40;;;;;;2390361;54;21485;-76
2022/06/19 13:00:22;;;;;;;6.50;1.20;;;38.90;25.30;;;;;;2292985;55;21428;-79
2022/06/19 13:05:49;;;;;;;2.72;1.30;;;39.00;25.30;;;;;;2291239;55;20986;-78
2022/06/19 13:11:59;;;;;;;4.20;1.20;;;39.10;25.00;;;;;;2294344;55;21492;-77
2022/06/19 13:15:20;;;;;;;3.92;1.37;;;39.20;24.90;;;;;;2368789;54;20965;-77
2022/06/19 13:21:24;;;;;;;3.50;1.20;;;39.30;24.80;;;;;;2252495;55;1263219;-77
2022/06/19 13:24:02;;;;;;;;;;;39.50;25.00;;;;;;2427012;54;21446;-75
2022/06/19 13:32:17;;;;;;;5.95;1.27;;;39.60;24.40;;;;;;2290849;55;20956;-79
2022/06/19 13:38:13;;;;;;;5.70;1.27;;;39.60;24.60;;;;;;2409952;54;20968;-80
2022/06/19 13:41:03;;;;;;;3.78;1.20;;;39.80;24.30;;;;;;2349538;54;21661;-77
2022/06/19 13:43:55;;;;;;;3.90;1.20;;;39.80;24.00;;;;;;2320853;54;20929;-76
2022/06/19 13:49:55;;;;;;;4.12;1.48;;;39.80;24.20;;;;;;2525929;54;21751;-75
2022/06/19 13:52:45;;;;;;;3.85;1.25;;;40.00;24.60;;;;;;2429332;54;20988;-75
2022/06/19 13:55:51;;;;;;;4.12;1.30;;;40.00;23.80;;;;;;2290946;55;21060;-74
2022/06/19 13:58:28;;;;;;;3.83;1.23;;;40.10;23.70;;;;;;2525271;54;20944;-77
2022/06/19 14:01:18;;;;;;;2.97;1.25;;;40.10;23.60;;;;;;2293287;55;20961;-75
2022/06/19 14:05:39;;;;;;;4.37;1.42;;;40.20;23.20;;;;;;2290210;55;21096;-77
2022/06/19 14:09:24;;;;;;;2.75;1.20;;;40.30;23.90;;;;;;2373402;54;21031;-76
2022/06/19 14:12:05;;;;;;;2.75;1.20;;;40.40;23.50;;;;;;2294173;55;21029;-78
2022/06/19 14:14:40;;;;;;;8.50;2.05;;;40.40;23.60;;;;;;2331951;54;20967;-76
2022/06/19 14:19:52;;;;;;;6.95;1.92;;;40.50;23.20;;;;;;2290577;55;21016;-75
2022/06/19 14:22:45;;;;;;;2.83;1.13;;;40.50;23.00;;;;;;2391167;54;20909;-75
2022/06/19 14:25:35;;;;;;;4.93;1.30;;;40.70;23.30;;;;;;2293832;55;21000;-74
2022/06/19 14:28:18;;;;;;;5.05;1.80;;;40.70;22.90;;;;;;2391598;54;20969;-76
2022/06/19 14:30:52;;;;;;;4.47;1.33;;;40.70;23.00;;;;;;2525268;54;20992;-75
2022/06/19 14:33:45;;;;;;;4.72;1.75;;;40.80;23.30;;;;;;2496450;54;20958;-75
2022/06/19 14:36:25;;;;;;;3.70;1.42;;;40.80;22.60;;;;;;2289114;55;21469;-74
2022/06/19 14:38:56;;;;;;;4.15;1.62;;;40.90;22.80;;;;;;2290281;55;20932;-76
2022/06/19 14:41:32;;;;;;;;;;;40.90;23.10;;;;;;2293898;55;21092;-76
2022/06/19 14:44:20;;;;;;;5.95;1.70;;;41.00;23.30;;;;;;2271084;55;20709;-75